sensor_id;sensor_type;location;lat;lon;timestamp;temperature;humidity
2639;DHT22;1329;51.384;7.122;2024-02-04T00:02:06;12.00;99.90
2639;DHT22;1329;51.384;7.122;2024-02-04T00:04:38;12.00;99.90
2639;DHT22;1329;51.384;7.122;2024-02-04T00:07:06;12.00;99.90
2639;DHT22;1329;51.384;7.122;2024-02-04T00:09:33;11.90;99.90
2639;DHT22;1329;51.384;7.122;2024-02-04T00:12:00;12.00;99.90
2639;DHT22;1329;51.384;7.122;2024-02-04T00:14:29;12.00;99.90
2639;DHT22;1329;51.384;7.122;2024-02-04T00:16:56;12.00;99.90
2639;DHT22;1329;51.384;7.122;2024-02-04T00:19:25;12.00;99.90
2639;DHT22;1329;51.384;7.122;2024-02-04T00:21:53;12.00;99.90
2639;DHT22;1329;51.384;7.122;2024-02-04T00:24:20;12.00;99.90
2639;DHT22;1329;51.384;7.122;2024-02-04T00:26:47;12.00;99.90
2639;DHT22;1329;51.384;7.122;2024-02-04T00:29:14;12.00;99.90
2639;DHT22;1329;51.384;7.122;2024-02-04T00:31:41;12.00;99.90
2639;DHT22;1329;51.384;7.122;2024-02-04T00:34:08;12.00;99.90
2639;DHT22;1329;51.384;7.122;2024-02-04T00:36:36;12.00;99.90
2639;DHT22;1329;51.384;7.122;2024-02-04T00:39:03;12.00;99.90
2639;DHT22;1329;51.384;7.122;2024-02-04T00:41:32;12.00;99.90
2639;DHT22;1329;51.384;7.122;2024-02-04T00:44:00;12.00;99.90
2639;DHT22;1329;51.384;7.122;2024-02-04T00:46:27;11.90;99.90
2639;DHT22;1329;51.384;7.122;2024-02-04T00:48:54;11.90;99.90
2639;DHT22;1329;51.384;7.122;2024-02-04T00:51:22;11.90;99.90
2639;DHT22;1329;51.384;7.122;2024-02-04T00:53:50;11.90;99.90
2639;DHT22;1329;51.384;7.122;2024-02-04T00:56:18;11.90;99.90
2639;DHT22;1329;51.384;7.122;2024-02-04T00:58:45;11.90;99.90
2639;DHT22;1329;51.384;7.122;2024-02-04T01:01:12;11.90;99.90
2639;DHT22;1329;51.384;7.122;2024-02-04T01:03:39;11.90;99.90
2639;DHT22;1329;51.384;7.122;2024-02-04T01:06:06;11.80;99.90
2639;DHT22;1329;51.384;7.122;2024-02-04T01:08:33;11.80;99.90
2639;DHT22;1329;51.384;7.122;2024-02-04T01:11:04;11.80;99.90
2639;DHT22;1329;51.384;7.122;2024-02-04T01:13:32;11.80;99.90
2639;DHT22;1329;51.384;7.122;2024-02-04T01:15:59;11.80;99.90
2639;DHT22;1329;51.384;7.122;2024-02-04T01:18:26;11.80;99.90
2639;DHT22;1329;51.384;7.122;2024-02-04T01:20:53;11.80;99.90
2639;DHT22;1329;51.384;7.122;2024-02-04T01:23:20;11.80;99.90
2639;DHT22;1329;51.384;7.122;2024-02-04T01:25:47;11.80;99.90
2639;DHT22;1329;51.384;7.122;2024-02-04T01:28:15;11.80;99.90
2639;DHT22;1329;51.384;7.122;2024-02-04T01:30:42;11.80;99.90
2639;DHT22;1329;51.384;7.122;2024-02-04T01:33:09;11.80;99.90
2639;DHT22;1329;51.384;7.122;2024-02-04T01:35:36;11.70;99.90
2639;DHT22;1329;51.384;7.122;2024-02-04T01:38:03;11.80;99.90
2639;DHT22;1329;51.384;7.122;2024-02-04T01:40:30;11.70;99.90
2639;DHT22;1329;51.384;7.122;2024-02-04T01:42:58;11.70;99.90
2639;DHT22;1329;51.384;7.122;2024-02-04T01:45:26;11.70;99.90
2639;DHT22;1329;51.384;7.122;2024-02-04T01:47:53;11.70;99.90
2639;DHT22;1329;51.384;7.122;2024-02-04T01:50:21;11.80;99.90
2639;DHT22;1329;51.384;7.122;2024-02-04T01:52:49;11.70;99.90
2639;DHT22;1329;51.384;7.122;2024-02-04T01:55:18;11.70;99.90
2639;DHT22;1329;51.384;7.122;2024-02-04T01:57:48;11.70;99.90
2639;DHT22;1329;51.384;7.122;2024-02-04T02:00:15;11.70;99.90
2639;DHT22;1329;51.384;7.122;2024-02-04T02:02:46;11.70;99.90
2639;DHT22;1329;51.384;7.122;2024-02-04T02:05:13;11.70;99.90
2639;DHT22;1329;51.384;7.122;2024-02-04T02:07:43;11.70;99.90
2639;DHT22;1329;51.384;7.122;2024-02-04T02:10:13;11.70;99.90
2639;DHT22;1329;51.384;7.122;2024-02-04T02:12:45;11.70;99.90
2639;DHT22;1329;51.384;7.122;2024-02-04T02:15:20;11.70;99.90
2639;DHT22;1329;51.384;7.122;2024-02-04T02:17:52;11.70;99.90
2639;DHT22;1329;51.384;7.122;2024-02-04T02:20:27;11.70;99.90
2639;DHT22;1329;51.384;7.122;2024-02-04T02:23:06;11.80;99.90
2639;DHT22;1329;51.384;7.122;2024-02-04T02:25:36;11.70;99.90
2639;DHT22;1329;51.384;7.122;2024-02-04T02:28:04;11.80;99.90
2639;DHT22;1329;51.384;7.122;2024-02-04T02:30:31;11.80;99.90
2639;DHT22;1329;51.384;7.122;2024-02-04T02:32:59;11.80;99.90
2639;DHT22;1329;51.384;7.122;2024-02-04T02:35:27;11.80;99.90
2639;DHT22;1329;51.384;7.122;2024-02-04T02:38:03;11.80;99.90
2639;DHT22;1329;51.384;7.122;2024-02-04T02:40:40;11.80;99.90
2639;DHT22;1329;51.384;7.122;2024-02-04T02:43:12;11.80;99.90
2639;DHT22;1329;51.384;7.122;2024-02-04T02:45:41;11.80;99.90
2639;DHT22;1329;51.384;7.122;2024-02-04T02:48:10;11.80;99.90
2639;DHT22;1329;51.384;7.122;2024-02-04T02:50:38;11.80;99.90
2639;DHT22;1329;51.384;7.122;2024-02-04T02:53:05;11.80;99.90
2639;DHT22;1329;51.384;7.122;2024-02-04T02:55:32;11.90;99.90
2639;DHT22;1329;51.384;7.122;2024-02-04T02:58:01;11.90;99.90
2639;DHT22;1329;51.384;7.122;2024-02-04T03:00:28;11.80;99.90
2639;DHT22;1329;51.384;7.122;2024-02-04T03:02:55;11.90;99.90
2639;DHT22;1329;51.384;7.122;2024-02-04T03:05:22;11.90;99.90
2639;DHT22;1329;51.384;7.122;2024-02-04T03:07:50;11.90;99.90
2639;DHT22;1329;51.384;7.122;2024-02-04T03:10:17;11.90;99.90
2639;DHT22;1329;51.384;7.122;2024-02-04T03:12:44;11.90;99.90
2639;DHT22;1329;51.384;7.122;2024-02-04T03:15:13;11.90;99.90
2639;DHT22;1329;51.384;7.122;2024-02-04T03:17:42;11.90;99.90
2639;DHT22;1329;51.384;7.122;2024-02-04T03:20:10;11.90;99.90
2639;DHT22;1329;51.384;7.122;2024-02-04T03:22:37;11.90;99.90
2639;DHT22;1329;51.384;7.122;2024-02-04T03:25:05;11.90;99.90
2639;DHT22;1329;51.384;7.122;2024-02-04T03:27:33;11.90;99.90
2639;DHT22;1329;51.384;7.122;2024-02-04T03:30:01;11.90;99.90
2639;DHT22;1329;51.384;7.122;2024-02-04T03:32:31;12.00;99.90
2639;DHT22;1329;51.384;7.122;2024-02-04T03:34:59;12.00;99.90
2639;DHT22;1329;51.384;7.122;2024-02-04T03:37:26;12.00;99.90
2639;DHT22;1329;51.384;7.122;2024-02-04T03:39:53;12.00;99.90
2639;DHT22;1329;51.384;7.122;2024-02-04T03:42:20;12.00;99.90
2639;DHT22;1329;51.384;7.122;2024-02-04T03:44:47;12.00;99.90
2639;DHT22;1329;51.384;7.122;2024-02-04T03:47:14;12.00;99.90
2639;DHT22;1329;51.384;7.122;2024-02-04T03:49:43;12.00;99.90
2639;DHT22;1329;51.384;7.122;2024-02-04T03:52:10;12.00;99.90
2639;DHT22;1329;51.384;7.122;2024-02-04T03:54:37;12.10;99.90
2639;DHT22;1329;51.384;7.122;2024-02-04T03:57:04;12.10;99.90
2639;DHT22;1329;51.384;7.122;2024-02-04T03:59:31;12.10;99.90
2639;DHT22;1329;51.384;7.122;2024-02-04T04:01:58;12.10;99.90
2639;DHT22;1329;51.384;7.122;2024-02-04T04:04:25;12.10;99.90
2639;DHT22;1329;51.384;7.122;2024-02-04T04:06:54;12.10;99.90
2639;DHT22;1329;51.384;7.122;2024-02-04T04:09:21;12.10;99.90
2639;DHT22;1329;51.384;7.122;2024-02-04T04:11:48;12.10;99.90
2639;DHT22;1329;51.384;7.122;2024-02-04T04:14:15;12.10;99.90
2639;DHT22;1329;51.384;7.122;2024-02-04T04:16:42;12.10;99.90
2639;DHT22;1329;51.384;7.122;2024-02-04T04:19:09;12.10;99.90
2639;DHT22;1329;51.384;7.122;2024-02-04T04:21:37;12.10;99.90
2639;DHT22;1329;51.384;7.122;2024-02-04T04:24:07;12.10;99.90
2639;DHT22;1329;51.384;7.122;2024-02-04T04:26:34;12.10;99.90
2639;DHT22;1329;51.384;7.122;2024-02-04T04:29:02;12.10;99.90
2639;DHT22;1329;51.384;7.122;2024-02-04T04:31:31;12.10;99.90
2639;DHT22;1329;51.384;7.122;2024-02-04T04:33:58;12.10;99.90
2639;DHT22;1329;51.384;7.122;2024-02-04T04:36:25;12.10;99.90
2639;DHT22;1329;51.384;7.122;2024-02-04T04:38:52;12.10;99.90
2639;DHT22;1329;51.384;7.122;2024-02-04T04:41:21;12.10;99.90
2639;DHT22;1329;51.384;7.122;2024-02-04T04:43:48;12.10;99.90
2639;DHT22;1329;51.384;7.122;2024-02-04T04:46:15;12.10;99.90
2639;DHT22;1329;51.384;7.122;2024-02-04T04:48:42;12.10;99.90
2639;DHT22;1329;51.384;7.122;2024-02-04T04:51:10;12.10;99.90
2639;DHT22;1329;51.384;7.122;2024-02-04T04:53:38;12.10;99.90
2639;DHT22;1329;51.384;7.122;2024-02-04T04:56:06;12.10;99.90
2639;DHT22;1329;51.384;7.122;2024-02-04T04:58:35;12.10;99.90
2639;DHT22;1329;51.384;7.122;2024-02-04T05:01:02;12.10;99.90
2639;DHT22;1329;51.384;7.122;2024-02-04T05:03:29;12.10;99.90
2639;DHT22;1329;51.384;7.122;2024-02-04T05:05:56;12.10;99.90
2639;DHT22;1329;51.384;7.122;2024-02-04T05:08:23;12.10;99.90
2639;DHT22;1329;51.384;7.122;2024-02-04T05:10:50;12.10;99.90
2639;DHT22;1329;51.384;7.122;2024-02-04T05:13:17;12.10;99.90
2639;DHT22;1329;51.384;7.122;2024-02-04T05:15:46;12.10;99.90
2639;DHT22;1329;51.384;7.122;2024-02-04T05:18:13;12.10;99.90
2639;DHT22;1329;51.384;7.122;2024-02-04T05:20:40;12.10;99.90
2639;DHT22;1329;51.384;7.122;2024-02-04T05:23:09;12.10;99.90
2639;DHT22;1329;51.384;7.122;2024-02-04T05:25:36;12.10;99.90
2639;DHT22;1329;51.384;7.122;2024-02-04T05:28:04;12.10;99.90
2639;DHT22;1329;51.384;7.122;2024-02-04T05:30:31;12.10;99.90
2639;DHT22;1329;51.384;7.122;2024-02-04T05:32:59;12.10;99.90
2639;DHT22;1329;51.384;7.122;2024-02-04T05:35:26;12.10;99.90
2639;DHT22;1329;51.384;7.122;2024-02-04T05:37:53;12.10;99.90
2639;DHT22;1329;51.384;7.122;2024-02-04T05:40:20;12.10;99.90
2639;DHT22;1329;51.384;7.122;2024-02-04T05:42:47;12.10;99.90
2639;DHT22;1329;51.384;7.122;2024-02-04T05:45:15;12.10;99.90
2639;DHT22;1329;51.384;7.122;2024-02-04T05:47:42;12.10;99.90
2639;DHT22;1329;51.384;7.122;2024-02-04T05:50:13;12.10;99.90
2639;DHT22;1329;51.384;7.122;2024-02-04T05:52:40;12.10;99.90
2639;DHT22;1329;51.384;7.122;2024-02-04T05:55:09;12.10;99.90
2639;DHT22;1329;51.384;7.122;2024-02-04T05:57:36;12.10;99.90
2639;DHT22;1329;51.384;7.122;2024-02-04T06:00:04;12.10;99.90
2639;DHT22;1329;51.384;7.122;2024-02-04T06:02:33;12.10;99.90
2639;DHT22;1329;51.384;7.122;2024-02-04T06:05:00;12.10;99.90
2639;DHT22;1329;51.384;7.122;2024-02-04T06:07:29;12.10;99.90
2639;DHT22;1329;51.384;7.122;2024-02-04T06:09:56;12.10;99.90
2639;DHT22;1329;51.384;7.122;2024-02-04T06:12:25;12.10;99.90
2639;DHT22;1329;51.384;7.122;2024-02-04T06:14:52;12.10;99.90
2639;DHT22;1329;51.384;7.122;2024-02-04T06:17:19;12.10;99.90
2639;DHT22;1329;51.384;7.122;2024-02-04T06:19:46;12.10;99.90
2639;DHT22;1329;51.384;7.122;2024-02-04T06:22:14;12.10;99.90
2639;DHT22;1329;51.384;7.122;2024-02-04T06:24:43;12.10;99.90
2639;DHT22;1329;51.384;7.122;2024-02-04T06:27:11;12.10;99.90
2639;DHT22;1329;51.384;7.122;2024-02-04T06:29:38;12.10;99.90
2639;DHT22;1329;51.384;7.122;2024-02-04T06:32:05;12.10;99.90
2639;DHT22;1329;51.384;7.122;2024-02-04T06:34:32;12.10;99.90
2639;DHT22;1329;51.384;7.122;2024-02-04T06:36:59;12.10;99.90
2639;DHT22;1329;51.384;7.122;2024-02-04T06:39:26;12.10;99.90
2639;DHT22;1329;51.384;7.122;2024-02-04T06:41:55;12.10;99.90
2639;DHT22;1329;51.384;7.122;2024-02-04T06:44:22;12.10;99.90
2639;DHT22;1329;51.384;7.122;2024-02-04T06:46:49;12.10;99.90
2639;DHT22;1329;51.384;7.122;2024-02-04T06:49:16;12.10;99.90
2639;DHT22;1329;51.384;7.122;2024-02-04T06:51:43;12.10;99.90
2639;DHT22;1329;51.384;7.122;2024-02-04T06:54:11;12.10;99.90
2639;DHT22;1329;51.384;7.122;2024-02-04T06:56:38;12.10;99.90
2639;DHT22;1329;51.384;7.122;2024-02-04T06:59:06;12.10;99.90
2639;DHT22;1329;51.384;7.122;2024-02-04T07:01:33;12.10;99.90
2639;DHT22;1329;51.384;7.122;2024-02-04T07:04:00;12.00;99.90
2639;DHT22;1329;51.384;7.122;2024-02-04T07:06:27;12.00;99.90
2639;DHT22;1329;51.384;7.122;2024-02-04T07:08:54;12.00;99.90
2639;DHT22;1329;51.384;7.122;2024-02-04T07:11:21;12.10;99.90
2639;DHT22;1329;51.384;7.122;2024-02-04T07:13:49;12.00;99.90
2639;DHT22;1329;51.384;7.122;2024-02-04T07:16:18;12.00;99.90
2639;DHT22;1329;51.384;7.122;2024-02-04T07:18:45;12.00;99.90
2639;DHT22;1329;51.384;7.122;2024-02-04T07:21:12;12.00;99.90
2639;DHT22;1329;51.384;7.122;2024-02-04T07:23:39;12.00;99.90
2639;DHT22;1329;51.384;7.122;2024-02-04T07:26:07;12.00;99.90
2639;DHT22;1329;51.384;7.122;2024-02-04T07:28:34;12.00;99.90
2639;DHT22;1329;51.384;7.122;2024-02-04T07:31:01;12.00;99.90
2639;DHT22;1329;51.384;7.122;2024-02-04T07:33:29;12.00;99.90
2639;DHT22;1329;51.384;7.122;2024-02-04T07:35:57;12.00;99.90
2639;DHT22;1329;51.384;7.122;2024-02-04T07:38:24;12.00;99.90
2639;DHT22;1329;51.384;7.122;2024-02-04T07:40:51;12.00;99.90
2639;DHT22;1329;51.384;7.122;2024-02-04T07:43:19;12.00;99.90
2639;DHT22;1329;51.384;7.122;2024-02-04T07:45:46;12.00;99.90
2639;DHT22;1329;51.384;7.122;2024-02-04T07:48:13;12.00;99.90
2639;DHT22;1329;51.384;7.122;2024-02-04T07:50:42;12.00;99.90
2639;DHT22;1329;51.384;7.122;2024-02-04T07:53:09;12.00;99.90
2639;DHT22;1329;51.384;7.122;2024-02-04T07:55:36;12.00;99.90
2639;DHT22;1329;51.384;7.122;2024-02-04T07:58:03;12.00;99.90
2639;DHT22;1329;51.384;7.122;2024-02-04T08:00:30;11.90;99.90
2639;DHT22;1329;51.384;7.122;2024-02-04T08:02:57;12.00;99.90
2639;DHT22;1329;51.384;7.122;2024-02-04T08:05:24;12.00;99.90
2639;DHT22;1329;51.384;7.122;2024-02-04T08:07:53;12.00;99.90
2639;DHT22;1329;51.384;7.122;2024-02-04T08:10:20;12.00;99.90
2639;DHT22;1329;51.384;7.122;2024-02-04T08:12:47;12.00;99.90
2639;DHT22;1329;51.384;7.122;2024-02-04T08:15:16;12.00;99.90
2639;DHT22;1329;51.384;7.122;2024-02-04T08:17:43;11.90;99.90
2639;DHT22;1329;51.384;7.122;2024-02-04T08:20:11;12.00;99.90
2639;DHT22;1329;51.384;7.122;2024-02-04T08:22:38;12.00;99.90
2639;DHT22;1329;51.384;7.122;2024-02-04T08:25:07;11.90;99.90
2639;DHT22;1329;51.384;7.122;2024-02-04T08:27:37;12.00;99.90
2639;DHT22;1329;51.384;7.122;2024-02-04T08:30:05;12.00;99.90
2639;DHT22;1329;51.384;7.122;2024-02-04T08:32:33;11.90;99.90
2639;DHT22;1329;51.384;7.122;2024-02-04T08:35:00;11.90;99.90
2639;DHT22;1329;51.384;7.122;2024-02-04T08:37:27;11.90;99.90
2639;DHT22;1329;51.384;7.122;2024-02-04T08:39:54;11.90;99.90
2639;DHT22;1329;51.384;7.122;2024-02-04T08:42:22;11.90;99.90
2639;DHT22;1329;51.384;7.122;2024-02-04T08:44:49;11.90;99.90
2639;DHT22;1329;51.384;7.122;2024-02-04T08:47:17;11.90;99.90
2639;DHT22;1329;51.384;7.122;2024-02-04T08:49:44;11.90;99.90
2639;DHT22;1329;51.384;7.122;2024-02-04T08:52:11;11.90;99.90
2639;DHT22;1329;51.384;7.122;2024-02-04T08:54:38;11.90;99.90
2639;DHT22;1329;51.384;7.122;2024-02-04T08:57:05;11.90;99.90
2639;DHT22;1329;51.384;7.122;2024-02-04T08:59:33;11.90;99.90
2639;DHT22;1329;51.384;7.122;2024-02-04T09:02:01;11.90;99.90
2639;DHT22;1329;51.384;7.122;2024-02-04T09:04:30;11.90;99.90
2639;DHT22;1329;51.384;7.122;2024-02-04T09:06:58;11.90;99.90
2639;DHT22;1329;51.384;7.122;2024-02-04T09:09:25;11.90;99.90
2639;DHT22;1329;51.384;7.122;2024-02-04T09:11:51;11.90;99.90
2639;DHT22;1329;51.384;7.122;2024-02-04T09:14:18;11.90;99.90
2639;DHT22;1329;51.384;7.122;2024-02-04T09:16:47;11.80;99.90
2639;DHT22;1329;51.384;7.122;2024-02-04T09:19:14;11.90;99.90
2639;DHT22;1329;51.384;7.122;2024-02-04T09:21:41;11.90;99.90
2639;DHT22;1329;51.384;7.122;2024-02-04T09:24:09;11.90;99.90
2639;DHT22;1329;51.384;7.122;2024-02-04T09:26:36;11.90;99.90
2639;DHT22;1329;51.384;7.122;2024-02-04T09:29:04;11.90;99.90
2639;DHT22;1329;51.384;7.122;2024-02-04T09:31:31;11.90;99.90
2639;DHT22;1329;51.384;7.122;2024-02-04T09:34:00;11.90;99.90
2639;DHT22;1329;51.384;7.122;2024-02-04T09:36:27;11.90;99.90
2639;DHT22;1329;51.384;7.122;2024-02-04T09:38:54;11.90;99.90
2639;DHT22;1329;51.384;7.122;2024-02-04T09:41:21;12.00;99.90
2639;DHT22;1329;51.384;7.122;2024-02-04T09:43:50;12.00;99.90
2639;DHT22;1329;51.384;7.122;2024-02-04T09:46:18;12.00;99.90
2639;DHT22;1329;51.384;7.122;2024-02-04T09:48:45;12.00;99.90
2639;DHT22;1329;51.384;7.122;2024-02-04T09:51:14;12.00;99.90
2639;DHT22;1329;51.384;7.122;2024-02-04T09:53:44;12.00;99.90
2639;DHT22;1329;51.384;7.122;2024-02-04T09:56:12;12.00;99.90
2639;DHT22;1329;51.384;7.122;2024-02-04T09:58:40;12.00;99.90
2639;DHT22;1329;51.384;7.122;2024-02-04T10:01:06;12.00;99.90
2639;DHT22;1329;51.384;7.122;2024-02-04T10:03:35;12.00;99.90
2639;DHT22;1329;51.384;7.122;2024-02-04T10:06:02;12.00;99.90
2639;DHT22;1329;51.384;7.122;2024-02-04T10:08:30;12.00;99.90
2639;DHT22;1329;51.384;7.122;2024-02-04T10:10:57;12.00;99.90
2639;DHT22;1329;51.384;7.122;2024-02-04T10:13:25;12.10;99.90
2639;DHT22;1329;51.384;7.122;2024-02-04T10:15:52;12.00;99.90
2639;DHT22;1329;51.384;7.122;2024-02-04T10:18:19;12.10;99.90
2639;DHT22;1329;51.384;7.122;2024-02-04T10:20:47;12.10;99.90
2639;DHT22;1329;51.384;7.122;2024-02-04T10:23:14;12.00;99.90
2639;DHT22;1329;51.384;7.122;2024-02-04T10:25:42;12.10;99.90
2639;DHT22;1329;51.384;7.122;2024-02-04T10:28:10;12.00;99.90
2639;DHT22;1329;51.384;7.122;2024-02-04T10:30:38;12.10;99.90
2639;DHT22;1329;51.384;7.122;2024-02-04T10:33:05;12.00;99.90
2639;DHT22;1329;51.384;7.122;2024-02-04T10:35:32;12.10;99.90
2639;DHT22;1329;51.384;7.122;2024-02-04T10:37:59;12.10;99.90
2639;DHT22;1329;51.384;7.122;2024-02-04T10:40:26;12.10;99.90
2639;DHT22;1329;51.384;7.122;2024-02-04T10:42:57;12.10;99.90
2639;DHT22;1329;51.384;7.122;2024-02-04T10:45:29;12.20;99.90
2639;DHT22;1329;51.384;7.122;2024-02-04T10:48:01;12.20;99.90
2639;DHT22;1329;51.384;7.122;2024-02-04T10:50:30;12.30;99.90
2639;DHT22;1329;51.384;7.122;2024-02-04T10:53:04;12.30;99.90
2639;DHT22;1329;51.384;7.122;2024-02-04T10:55:36;12.40;99.90
2639;DHT22;1329;51.384;7.122;2024-02-04T10:58:12;12.40;99.90
2639;DHT22;1329;51.384;7.122;2024-02-04T11:00:41;12.40;99.90
2639;DHT22;1329;51.384;7.122;2024-02-04T11:03:08;12.50;99.90
2639;DHT22;1329;51.384;7.122;2024-02-04T11:05:36;12.50;99.90
2639;DHT22;1329;51.384;7.122;2024-02-04T11:08:06;12.50;99.90
2639;DHT22;1329;51.384;7.122;2024-02-04T11:10:34;12.60;99.90
2639;DHT22;1329;51.384;7.122;2024-02-04T11:13:02;12.60;99.90
2639;DHT22;1329;51.384;7.122;2024-02-04T11:15:36;12.70;99.90
2639;DHT22;1329;51.384;7.122;2024-02-04T11:24:53;12.80;99.90
2639;DHT22;1329;51.384;7.122;2024-02-04T11:27:26;12.70;99.90
2639;DHT22;1329;51.384;7.122;2024-02-04T11:29:53;12.70;99.90
2639;DHT22;1329;51.384;7.122;2024-02-04T11:32:24;12.70;99.90
2639;DHT22;1329;51.384;7.122;2024-02-04T11:34:53;12.60;99.90
2639;DHT22;1329;51.384;7.122;2024-02-04T11:37:20;12.60;99.90
2639;DHT22;1329;51.384;7.122;2024-02-04T11:39:51;12.60;99.90
2639;DHT22;1329;51.384;7.122;2024-02-04T11:42:19;12.60;99.90
2639;DHT22;1329;51.384;7.122;2024-02-04T11:44:46;12.50;99.90
2639;DHT22;1329;51.384;7.122;2024-02-04T11:47:24;12.50;99.90
2639;DHT22;1329;51.384;7.122;2024-02-04T11:49:55;12.50;99.90
2639;DHT22;1329;51.384;7.122;2024-02-04T11:52:22;12.50;99.90
2639;DHT22;1329;51.384;7.122;2024-02-04T11:54:49;12.50;99.90
2639;DHT22;1329;51.384;7.122;2024-02-04T11:57:16;12.50;99.90
2639;DHT22;1329;51.384;7.122;2024-02-04T11:59:44;12.50;99.90
2639;DHT22;1329;51.384;7.122;2024-02-04T12:02:11;12.50;99.90
2639;DHT22;1329;51.384;7.122;2024-02-04T12:04:40;12.50;99.90
2639;DHT22;1329;51.384;7.122;2024-02-04T12:07:08;12.50;99.90
2639;DHT22;1329;51.384;7.122;2024-02-04T12:09:36;12.50;99.90
2639;DHT22;1329;51.384;7.122;2024-02-04T12:12:05;12.50;99.90
2639;DHT22;1329;51.384;7.122;2024-02-04T12:14:34;12.50;99.90
2639;DHT22;1329;51.384;7.122;2024-02-04T12:17:07;12.50;99.90
2639;DHT22;1329;51.384;7.122;2024-02-04T12:19:35;12.50;99.90
2639;DHT22;1329;51.384;7.122;2024-02-04T12:22:05;12.50;99.90
2639;DHT22;1329;51.384;7.122;2024-02-04T12:24:35;12.50;99.90
2639;DHT22;1329;51.384;7.122;2024-02-04T12:27:05;12.50;99.90
2639;DHT22;1329;51.384;7.122;2024-02-04T12:29:33;12.50;99.90
2639;DHT22;1329;51.384;7.122;2024-02-04T12:32:00;12.50;99.90
2639;DHT22;1329;51.384;7.122;2024-02-04T12:34:28;12.40;99.90
2639;DHT22;1329;51.384;7.122;2024-02-04T12:36:59;12.40;99.90
2639;DHT22;1329;51.384;7.122;2024-02-04T12:39:28;12.50;99.90
2639;DHT22;1329;51.384;7.122;2024-02-04T12:41:58;12.50;99.90
2639;DHT22;1329;51.384;7.122;2024-02-04T12:44:25;12.40;99.90
2639;DHT22;1329;51.384;7.122;2024-02-04T12:46:53;12.50;99.90
2639;DHT22;1329;51.384;7.122;2024-02-04T12:49:21;12.40;99.90
2639;DHT22;1329;51.384;7.122;2024-02-04T12:51:48;12.40;99.90
2639;DHT22;1329;51.384;7.122;2024-02-04T12:54:17;12.40;99.90
2639;DHT22;1329;51.384;7.122;2024-02-04T12:56:48;12.40;99.90
2639;DHT22;1329;51.384;7.122;2024-02-04T12:59:26;12.40;99.90
2639;DHT22;1329;51.384;7.122;2024-02-04T13:01:56;12.50;99.90
2639;DHT22;1329;51.384;7.122;2024-02-04T13:04:24;12.50;99.90
2639;DHT22;1329;51.384;7.122;2024-02-04T13:06:52;12.50;99.90
2639;DHT22;1329;51.384;7.122;2024-02-04T13:09:20;12.50;99.90
2639;DHT22;1329;51.384;7.122;2024-02-04T13:11:50;12.50;99.90
2639;DHT22;1329;51.384;7.122;2024-02-04T13:14:17;12.50;99.90
2639;DHT22;1329;51.384;7.122;2024-02-04T13:16:48;12.50;99.90
2639;DHT22;1329;51.384;7.122;2024-02-04T13:19:15;12.50;99.90
2639;DHT22;1329;51.384;7.122;2024-02-04T13:21:42;12.50;99.90
2639;DHT22;1329;51.384;7.122;2024-02-04T13:24:10;12.50;99.90
2639;DHT22;1329;51.384;7.122;2024-02-04T13:26:39;12.50;99.90
2639;DHT22;1329;51.384;7.122;2024-02-04T13:29:10;12.50;99.90
2639;DHT22;1329;51.384;7.122;2024-02-04T13:31:38;12.50;99.90
2639;DHT22;1329;51.384;7.122;2024-02-04T13:34:05;12.50;99.90
2639;DHT22;1329;51.384;7.122;2024-02-04T13:36:33;12.50;99.90
2639;DHT22;1329;51.384;7.122;2024-02-04T13:39:01;12.50;99.90
2639;DHT22;1329;51.384;7.122;2024-02-04T13:41:29;12.50;99.90
2639;DHT22;1329;51.384;7.122;2024-02-04T13:43:56;12.50;99.90
2639;DHT22;1329;51.384;7.122;2024-02-04T13:46:25;12.40;99.90
2639;DHT22;1329;51.384;7.122;2024-02-04T13:48:53;12.40;99.90
2639;DHT22;1329;51.384;7.122;2024-02-04T13:51:21;12.40;99.90
2639;DHT22;1329;51.384;7.122;2024-02-04T13:53:50;12.40;99.90
2639;DHT22;1329;51.384;7.122;2024-02-04T13:56:20;12.40;99.90
2639;DHT22;1329;51.384;7.122;2024-02-04T13:58:48;12.40;99.90
2639;DHT22;1329;51.384;7.122;2024-02-04T14:01:16;12.40;99.90
2639;DHT22;1329;51.384;7.122;2024-02-04T14:03:46;12.40;99.90
2639;DHT22;1329;51.384;7.122;2024-02-04T14:06:13;12.40;99.90
2639;DHT22;1329;51.384;7.122;2024-02-04T14:08:41;12.30;99.90
2639;DHT22;1329;51.384;7.122;2024-02-04T14:11:09;12.40;99.90
2639;DHT22;1329;51.384;7.122;2024-02-04T14:13:36;12.40;99.90
2639;DHT22;1329;51.384;7.122;2024-02-04T14:16:04;12.40;99.90
2639;DHT22;1329;51.384;7.122;2024-02-04T14:18:35;12.40;99.90
2639;DHT22;1329;51.384;7.122;2024-02-04T14:21:04;12.30;99.90
2639;DHT22;1329;51.384;7.122;2024-02-04T14:23:32;12.30;99.90
2639;DHT22;1329;51.384;7.122;2024-02-04T14:26:00;12.40;99.90
2639;DHT22;1329;51.384;7.122;2024-02-04T14:28:28;12.30;99.90
2639;DHT22;1329;51.384;7.122;2024-02-04T14:30:56;12.30;99.90
2639;DHT22;1329;51.384;7.122;2024-02-04T14:33:23;12.30;99.90
2639;DHT22;1329;51.384;7.122;2024-02-04T14:35:51;12.30;99.90
2639;DHT22;1329;51.384;7.122;2024-02-04T14:38:20;12.30;99.90
2639;DHT22;1329;51.384;7.122;2024-02-04T14:40:47;12.30;99.90
2639;DHT22;1329;51.384;7.122;2024-02-04T14:43:15;12.30;99.90
2639;DHT22;1329;51.384;7.122;2024-02-04T14:45:43;12.30;99.90
2639;DHT22;1329;51.384;7.122;2024-02-04T14:48:11;12.30;99.90
2639;DHT22;1329;51.384;7.122;2024-02-04T14:50:41;12.30;99.90
2639;DHT22;1329;51.384;7.122;2024-02-04T14:53:09;12.30;99.90
2639;DHT22;1329;51.384;7.122;2024-02-04T14:55:38;12.30;99.90
2639;DHT22;1329;51.384;7.122;2024-02-04T14:58:05;12.30;99.90
2639;DHT22;1329;51.384;7.122;2024-02-04T15:00:33;12.30;99.90
2639;DHT22;1329;51.384;7.122;2024-02-04T15:03:00;12.30;99.90
2639;DHT22;1329;51.384;7.122;2024-02-04T15:05:28;12.30;99.90
2639;DHT22;1329;51.384;7.122;2024-02-04T15:07:55;12.30;99.90
2639;DHT22;1329;51.384;7.122;2024-02-04T15:10:23;12.30;99.90
2639;DHT22;1329;51.384;7.122;2024-02-04T15:12:52;12.30;99.90
2639;DHT22;1329;51.384;7.122;2024-02-04T15:15:21;12.30;99.90
2639;DHT22;1329;51.384;7.122;2024-02-04T15:17:50;12.30;99.90
2639;DHT22;1329;51.384;7.122;2024-02-04T15:20:18;12.30;99.90
2639;DHT22;1329;51.384;7.122;2024-02-04T15:22:49;12.30;99.90
2639;DHT22;1329;51.384;7.122;2024-02-04T15:25:17;12.30;99.90
2639;DHT22;1329;51.384;7.122;2024-02-04T15:27:46;12.30;99.90
2639;DHT22;1329;51.384;7.122;2024-02-04T15:30:16;12.30;99.90
2639;DHT22;1329;51.384;7.122;2024-02-04T15:32:45;12.30;99.90
2639;DHT22;1329;51.384;7.122;2024-02-04T15:35:14;12.30;99.90
2639;DHT22;1329;51.384;7.122;2024-02-04T15:37:41;12.30;99.90
2639;DHT22;1329;51.384;7.122;2024-02-04T15:40:09;12.30;99.90
2639;DHT22;1329;51.384;7.122;2024-02-04T15:42:37;12.30;99.90
2639;DHT22;1329;51.384;7.122;2024-02-04T15:45:06;12.30;99.90
2639;DHT22;1329;51.384;7.122;2024-02-04T15:47:40;12.30;99.90
2639;DHT22;1329;51.384;7.122;2024-02-04T15:50:15;12.30;99.90
2639;DHT22;1329;51.384;7.122;2024-02-04T15:52:44;12.30;99.90
2639;DHT22;1329;51.384;7.122;2024-02-04T15:55:12;12.30;99.90
2639;DHT22;1329;51.384;7.122;2024-02-04T15:57:46;12.30;99.90
2639;DHT22;1329;51.384;7.122;2024-02-04T16:00:17;12.30;99.90
2639;DHT22;1329;51.384;7.122;2024-02-04T16:02:50;12.30;99.90
2639;DHT22;1329;51.384;7.122;2024-02-04T16:05:19;12.30;99.90
2639;DHT22;1329;51.384;7.122;2024-02-04T16:07:48;12.30;99.90
2639;DHT22;1329;51.384;7.122;2024-02-04T16:10:17;12.20;99.90
2639;DHT22;1329;51.384;7.122;2024-02-04T16:12:54;12.30;99.90
2639;DHT22;1329;51.384;7.122;2024-02-04T16:15:23;12.30;99.90